sensor_id;sensor_type;location;lat;lon;timestamp;pressure;altitude;pressure_sealevel;temperature
70415;BMP280;57837;52.064;113.478;2023-03-04T00:02:41;93609.53;;;-6.72
70415;BMP280;57837;52.064;113.478;2023-03-04T00:05:44;93604.94;;;-6.58
70415;BMP280;57837;52.064;113.478;2023-03-04T00:08:49;93596.81;;;-6.39
70415;BMP280;57837;52.064;113.478;2023-03-04T00:11:53;93593.03;;;-6.33
70415;BMP280;57837;52.064;113.478;2023-03-04T00:14:56;93588.97;;;-6.09
70415;BMP280;57837;52.064;113.478;2023-03-04T00:18:00;93571.47;;;-5.59
70415;BMP280;57837;52.064;113.478;2023-03-04T00:21:03;93574.88;;;-5.19
70415;BMP280;57837;52.064;113.478;2023-03-04T00:24:07;93570.97;;;-5.17
70415;BMP280;57837;52.064;113.478;2023-03-04T00:27:11;93570.44;;;-5.26
70415;BMP280;57837;52.064;113.478;2023-03-04T00:30:14;93573.69;;;-5.26
70415;BMP280;57837;52.064;113.478;2023-03-04T00:33:18;93567.50;;;-5.28
70415;BMP280;57837;52.064;113.478;2023-03-04T00:36:21;93563.63;;;-5.26
70415;BMP280;57837;52.064;113.478;2023-03-04T00:39:26;93560.66;;;-4.77
70415;BMP280;57837;52.064;113.478;2023-03-04T00:42:30;93569.06;;;-4.15
70415;BMP280;57837;52.064;113.478;2023-03-04T00:45:34;93567.69;;;-3.67
70415;BMP280;57837;52.064;113.478;2023-03-04T00:48:38;93574.41;;;-3.25
70415;BMP280;57837;52.064;113.478;2023-03-04T00:51:41;93578.13;;;-2.92
70415;BMP280;57837;52.064;113.478;2023-03-04T00:54:44;93565.91;;;-2.57
70415;BMP280;57837;52.064;113.478;2023-03-04T00:57:47;93561.44;;;-1.96
70415;BMP280;57837;52.064;113.478;2023-03-04T01:00:50;93555.03;;;-1.32
70415;BMP280;57837;52.064;113.478;2023-03-04T01:03:53;93549.94;;;-0.49
70415;BMP280;57837;52.064;113.478;2023-03-04T01:06:57;93538.06;;;-0.09
70415;BMP280;57837;52.064;113.478;2023-03-04T01:10:04;93537.00;;;0.17
70415;BMP280;57837;52.064;113.478;2023-03-04T01:13:08;93535.53;;;0.19
70415;BMP280;57837;52.064;113.478;2023-03-04T01:16:11;93538.34;;;0.82
70415;BMP280;57837;52.064;113.478;2023-03-04T01:19:15;93526.75;;;1.50
70415;BMP280;57837;52.064;113.478;2023-03-04T01:22:18;93530.44;;;1.97
70415;BMP280;57837;52.064;113.478;2023-03-04T01:25:21;93533.50;;;2.26
70415;BMP280;57837;52.064;113.478;2023-03-04T01:28:26;93522.97;;;2.62
70415;BMP280;57837;52.064;113.478;2023-03-04T01:31:29;93520.72;;;2.64
70415;BMP280;57837;52.064;113.478;2023-03-04T01:34:32;93517.84;;;2.24
70415;BMP280;57837;52.064;113.478;2023-03-04T01:37:38;93517.13;;;2.20
70415;BMP280;57837;52.064;113.478;2023-03-04T01:40:41;93513.38;;;2.32
70415;BMP280;57837;52.064;113.478;2023-03-04T01:43:45;93514.97;;;2.56
70415;BMP280;57837;52.064;113.478;2023-03-04T01:46:53;93498.28;;;3.12
70415;BMP280;57837;52.064;113.478;2023-03-04T01:50:00;93483.72;;;3.06
70415;BMP280;57837;52.064;113.478;2023-03-04T01:53:19;93476.28;;;2.92
70415;BMP280;57837;52.064;113.478;2023-03-04T01:56:44;93467.97;;;3.61
70415;BMP280;57837;52.064;113.478;2023-03-04T02:03:40;93451.19;;;3.83
70415;BMP280;57837;52.064;113.478;2023-03-04T02:06:45;93443.50;;;4.07
70415;BMP280;57837;52.064;113.478;2023-03-04T02:09:49;93440.13;;;4.49
70415;BMP280;57837;52.064;113.478;2023-03-04T02:12:52;93428.03;;;4.50
70415;BMP280;57837;52.064;113.478;2023-03-04T02:15:56;93429.50;;;4.11
70415;BMP280;57837;52.064;113.478;2023-03-04T02:18:59;93421.50;;;4.09
70415;BMP280;57837;52.064;113.478;2023-03-04T02:22:03;93415.91;;;3.95
70415;BMP280;57837;52.064;113.478;2023-03-04T02:25:14;93396.41;;;4.01
70415;BMP280;57837;52.064;113.478;2023-03-04T02:28:20;93386.53;;;3.99
70415;BMP280;57837;52.064;113.478;2023-03-04T02:31:34;93377.00;;;4.39
70415;BMP280;57837;52.064;113.478;2023-03-04T02:34:45;93365.06;;;4.85
70415;BMP280;57837;52.064;113.478;2023-03-04T02:37:48;93355.22;;;5.00
70415;BMP280;57837;52.064;113.478;2023-03-04T02:40:54;93360.78;;;5.27
70415;BMP280;57837;52.064;113.478;2023-03-04T02:43:59;93344.19;;;5.31
70415;BMP280;57837;52.064;113.478;2023-03-04T02:47:05;93347.94;;;5.43
70415;BMP280;57837;52.064;113.478;2023-03-04T02:50:09;93344.25;;;6.15
70415;BMP280;57837;52.064;113.478;2023-03-04T02:53:12;93340.69;;;6.25
70415;BMP280;57837;52.064;113.478;2023-03-04T02:56:18;93331.53;;;6.24
70415;BMP280;57837;52.064;113.478;2023-03-04T02:59:22;93328.28;;;6.07
70415;BMP280;57837;52.064;113.478;2023-03-04T03:02:26;93311.03;;;6.07
70415;BMP280;57837;52.064;113.478;2023-03-04T03:05:34;93292.97;;;6.83
70415;BMP280;57837;52.064;113.478;2023-03-04T03:08:38;93288.25;;;6.95
70415;BMP280;57837;52.064;113.478;2023-03-04T03:11:41;93277.00;;;7.01
70415;BMP280;57837;52.064;113.478;2023-03-04T03:14:45;93266.44;;;6.87
70415;BMP280;57837;52.064;113.478;2023-03-04T03:17:51;93256.41;;;6.79
70415;BMP280;57837;52.064;113.478;2023-03-04T03:20:54;93253.56;;;7.21
70415;BMP280;57837;52.064;113.478;2023-03-04T03:23:57;93246.44;;;7.03
70415;BMP280;57837;52.064;113.478;2023-03-04T03:27:01;93242.53;;;6.77
70415;BMP280;57837;52.064;113.478;2023-03-04T03:30:06;93236.59;;;6.89
70415;BMP280;57837;52.064;113.478;2023-03-04T03:33:10;93214.66;;;6.97
70415;BMP280;57837;52.064;113.478;2023-03-04T03:36:15;93203.66;;;7.18
70415;BMP280;57837;52.064;113.478;2023-03-04T03:39:18;93198.38;;;7.22
70415;BMP280;57837;52.064;113.478;2023-03-04T03:42:21;93179.75;;;7.40
70415;BMP280;57837;52.064;113.478;2023-03-04T03:45:24;93177.88;;;7.40
70415;BMP280;57837;52.064;113.478;2023-03-04T03:48:27;93164.75;;;7.47
70415;BMP280;57837;52.064;113.478;2023-03-04T03:51:30;93160.44;;;7.75
70415;BMP280;57837;52.064;113.478;2023-03-04T03:54:33;93140.59;;;8.12
70415;BMP280;57837;52.064;113.478;2023-03-04T03:57:36;93134.59;;;8.15
70415;BMP280;57837;52.064;113.478;2023-03-04T04:00:40;93121.38;;;7.95
70415;BMP280;57837;52.064;113.478;2023-03-04T04:03:43;93122.66;;;7.81
70415;BMP280;57837;52.064;113.478;2023-03-04T04:06:46;93117.94;;;7.89
70415;BMP280;57837;52.064;113.478;2023-03-04T04:09:49;93104.69;;;8.09
70415;BMP280;57837;52.064;113.478;2023-03-04T04:12:53;93094.50;;;8.42
70415;BMP280;57837;52.064;113.478;2023-03-04T04:15:56;93090.03;;;8.69
70415;BMP280;57837;52.064;113.478;2023-03-04T04:18:58;93091.56;;;8.85
70415;BMP280;57837;52.064;113.478;2023-03-04T04:22:02;93074.19;;;8.95
70415;BMP280;57837;52.064;113.478;2023-03-04T04:25:06;93056.75;;;9.13
70415;BMP280;57837;52.064;113.478;2023-03-04T04:28:12;93045.56;;;9.17
70415;BMP280;57837;52.064;113.478;2023-03-04T04:31:15;93054.91;;;9.14
70415;BMP280;57837;52.064;113.478;2023-03-04T04:34:17;93037.81;;;9.17
70415;BMP280;57837;52.064;113.478;2023-03-04T04:37:21;93022.09;;;9.29
70415;BMP280;57837;52.064;113.478;2023-03-04T04:40:24;93023.91;;;9.47
70415;BMP280;57837;52.064;113.478;2023-03-04T04:43:27;93009.97;;;9.68
70415;BMP280;57837;52.064;113.478;2023-03-04T04:46:30;92986.13;;;9.88
70415;BMP280;57837;52.064;113.478;2023-03-04T04:49:33;92990.25;;;10.09
70415;BMP280;57837;52.064;113.478;2023-03-04T04:52:37;92996.91;;;10.01
70415;BMP280;57837;52.064;113.478;2023-03-04T04:55:40;92981.81;;;9.85
70415;BMP280;57837;52.064;113.478;2023-03-04T04:58:43;92988.78;;;9.79
70415;BMP280;57837;52.064;113.478;2023-03-04T05:01:47;92967.13;;;9.76
70415;BMP280;57837;52.064;113.478;2023-03-04T05:04:50;92959.75;;;10.13
70415;BMP280;57837;52.064;113.478;2023-03-04T05:07:53;92950.47;;;10.36
70415;BMP280;57837;52.064;113.478;2023-03-04T05:10:56;92942.78;;;10.42
70415;BMP280;57837;52.064;113.478;2023-03-04T05:14:00;92930.47;;;10.37
70415;BMP280;57837;52.064;113.478;2023-03-04T05:17:04;92922.91;;;10.33
70415;BMP280;57837;52.064;113.478;2023-03-04T05:20:07;92908.56;;;10.32
70415;BMP280;57837;52.064;113.478;2023-03-04T05:23:11;92904.53;;;10.31
70415;BMP280;57837;52.064;113.478;2023-03-04T05:26:15;92891.28;;;10.58
70415;BMP280;57837;52.064;113.478;2023-03-04T05:29:19;92881.19;;;10.81
70415;BMP280;57837;52.064;113.478;2023-03-04T05:32:22;92869.09;;;10.92
70415;BMP280;57837;52.064;113.478;2023-03-04T05:35:26;92861.56;;;10.94
70415;BMP280;57837;52.064;113.478;2023-03-04T05:38:30;92855.59;;;11.08
70415;BMP280;57837;52.064;113.478;2023-03-04T05:41:33;92839.00;;;11.21
70415;BMP280;57837;52.064;113.478;2023-03-04T05:44:37;92826.56;;;11.25
70415;BMP280;57837;52.064;113.478;2023-03-04T05:47:40;92821.81;;;11.43
70415;BMP280;57837;52.064;113.478;2023-03-04T05:50:45;92818.31;;;11.52
70415;BMP280;57837;52.064;113.478;2023-03-04T05:53:49;92816.13;;;11.76
70415;BMP280;57837;52.064;113.478;2023-03-04T05:56:52;92809.09;;;11.82
70415;BMP280;57837;52.064;113.478;2023-03-04T05:59:56;92803.72;;;11.86
70415;BMP280;57837;52.064;113.478;2023-03-04T06:03:01;92793.06;;;11.78
70415;BMP280;57837;52.064;113.478;2023-03-04T06:06:05;92779.38;;;11.78
70415;BMP280;57837;52.064;113.478;2023-03-04T06:09:08;92766.00;;;11.85
70415;BMP280;57837;52.064;113.478;2023-03-04T06:12:11;92764.44;;;11.98
70415;BMP280;57837;52.064;113.478;2023-03-04T06:15:14;92749.38;;;12.08
70415;BMP280;57837;52.064;113.478;2023-03-04T06:18:17;92736.00;;;12.21
70415;BMP280;57837;52.064;113.478;2023-03-04T06:21:21;92725.41;;;12.30
70415;BMP280;57837;52.064;113.478;2023-03-04T06:24:24;92723.81;;;12.44
70415;BMP280;57837;52.064;113.478;2023-03-04T06:27:27;92711.31;;;12.48
70415;BMP280;57837;52.064;113.478;2023-03-04T06:30:31;92711.75;;;12.46
70415;BMP280;57837;52.064;113.478;2023-03-04T06:33:35;92696.91;;;12.47
70415;BMP280;57837;52.064;113.478;2023-03-04T06:36:39;92690.06;;;12.44
70415;BMP280;57837;52.064;113.478;2023-03-04T06:39:43;92677.81;;;12.44
70415;BMP280;57837;52.064;113.478;2023-03-04T06:42:47;92665.53;;;12.50
70415;BMP280;57837;52.064;113.478;2023-03-04T06:45:51;92662.00;;;12.53
70415;BMP280;57837;52.064;113.478;2023-03-04T06:48:55;92659.88;;;12.63
70415;BMP280;57837;52.064;113.478;2023-03-04T06:52:00;92660.59;;;12.80
70415;BMP280;57837;52.064;113.478;2023-03-04T06:55:04;92657.53;;;12.93
70415;BMP280;57837;52.064;113.478;2023-03-04T06:58:08;92649.75;;;13.04
70415;BMP280;57837;52.064;113.478;2023-03-04T07:01:18;92644.03;;;13.16
70415;BMP280;57837;52.064;113.478;2023-03-04T07:04:23;92637.41;;;13.26
70415;BMP280;57837;52.064;113.478;2023-03-04T07:07:27;92632.91;;;13.38
70415;BMP280;57837;52.064;113.478;2023-03-04T07:10:31;92628.84;;;13.54
70415;BMP280;57837;52.064;113.478;2023-03-04T07:13:34;92629.28;;;13.63
70415;BMP280;57837;52.064;113.478;2023-03-04T07:16:40;92636.63;;;13.59
70415;BMP280;57837;52.064;113.478;2023-03-04T07:19:44;92627.63;;;13.60
70415;BMP280;57837;52.064;113.478;2023-03-04T07:22:48;92622.22;;;13.53
70415;BMP280;57837;52.064;113.478;2023-03-04T07:25:52;92624.63;;;13.45
70415;BMP280;57837;52.064;113.478;2023-03-04T07:28:56;92628.91;;;13.37
70415;BMP280;57837;52.064;113.478;2023-03-04T07:32:05;92619.00;;;13.30
70415;BMP280;57837;52.064;113.478;2023-03-04T07:35:09;92617.09;;;13.25
70415;BMP280;57837;52.064;113.478;2023-03-04T07:38:13;92628.44;;;13.22
70415;BMP280;57837;52.064;113.478;2023-03-04T07:41:17;92620.63;;;13.33
70415;BMP280;57837;52.064;113.478;2023-03-04T07:44:21;92621.34;;;13.28
70415;BMP280;57837;52.064;113.478;2023-03-04T07:47:25;92636.22;;;13.27
70415;BMP280;57837;52.064;113.478;2023-03-04T07:50:28;92623.72;;;13.20
70415;BMP280;57837;52.064;113.478;2023-03-04T07:53:33;92613.78;;;13.13
70415;BMP280;57837;52.064;113.478;2023-03-04T07:56:37;92615.00;;;13.07
70415;BMP280;57837;52.064;113.478;2023-03-04T07:59:41;92615.00;;;13.07
70415;BMP280;57837;52.064;113.478;2023-03-04T08:02:44;92608.19;;;13.04
70415;BMP280;57837;52.064;113.478;2023-03-04T08:05:49;92601.56;;;13.03
70415;BMP280;57837;52.064;113.478;2023-03-04T08:09:04;92600.84;;;13.02
70415;BMP280;57837;52.064;113.478;2023-03-04T08:12:08;92593.06;;;12.86
70415;BMP280;57837;52.064;113.478;2023-03-04T08:15:11;92598.28;;;12.86
70415;BMP280;57837;52.064;113.478;2023-03-04T08:18:15;92600.16;;;12.85
70415;BMP280;57837;52.064;113.478;2023-03-04T08:21:20;92599.44;;;12.84
70415;BMP280;57837;52.064;113.478;2023-03-04T08:24:24;92598.75;;;12.78
70415;BMP280;57837;52.064;113.478;2023-03-04T08:27:28;92597.81;;;12.81
70415;BMP280;57837;52.064;113.478;2023-03-04T08:30:32;92584.59;;;12.79
70415;BMP280;57837;52.064;113.478;2023-03-04T08:33:35;92593.78;;;12.80
70415;BMP280;57837;52.064;113.478;2023-03-04T08:36:42;92590.47;;;12.80
70415;BMP280;57837;52.064;113.478;2023-03-04T08:39:46;92590.03;;;12.70
70415;BMP280;57837;52.064;113.478;2023-03-04T08:42:50;92588.13;;;12.60
70415;BMP280;57837;52.064;113.478;2023-03-04T08:45:54;92584.13;;;12.53
70415;BMP280;57837;52.064;113.478;2023-03-04T08:48:58;92593.78;;;12.47
70415;BMP280;57837;52.064;113.478;2023-03-04T08:52:02;92596.63;;;12.38
70415;BMP280;57837;52.064;113.478;2023-03-04T08:55:06;92598.50;;;12.26
70415;BMP280;57837;52.064;113.478;2023-03-04T08:58:11;92599.19;;;12.16
70415;BMP280;57837;52.064;113.478;2023-03-04T09:01:15;92605.50;;;12.04
70415;BMP280;57837;52.064;113.478;2023-03-04T09:04:19;92604.09;;;11.91
70415;BMP280;57837;52.064;113.478;2023-03-04T09:07:23;92608.28;;;11.83
70415;BMP280;57837;52.064;113.478;2023-03-04T09:10:27;92611.59;;;11.73
70415;BMP280;57837;52.064;113.478;2023-03-04T09:13:31;92608.03;;;11.70
70415;BMP280;57837;52.064;113.478;2023-03-04T09:16:35;92610.13;;;11.66
70415;BMP280;57837;52.064;113.478;2023-03-04T09:19:39;92612.72;;;11.66
70415;BMP280;57837;52.064;113.478;2023-03-04T09:22:42;92611.97;;;11.60
70415;BMP280;57837;52.064;113.478;2023-03-04T09:25:47;92617.09;;;11.49
70415;BMP280;57837;52.064;113.478;2023-03-04T09:28:54;92629.28;;;11.37
70415;BMP280;57837;52.064;113.478;2023-03-04T09:31:58;92633.69;;;11.26
70415;BMP280;57837;52.064;113.478;2023-03-04T09:35:02;92628.97;;;11.19
70415;BMP280;57837;52.064;113.478;2023-03-04T09:38:06;92631.28;;;11.11
70415;BMP280;57837;52.064;113.478;2023-03-04T09:44:59;92647.78;;;10.82
70415;BMP280;57837;52.064;113.478;2023-03-04T09:48:02;92659.63;;;10.63
70415;BMP280;57837;52.064;113.478;2023-03-04T09:55:18;92668.56;;;10.42
70415;BMP280;57837;52.064;113.478;2023-03-04T09:58:21;92691.47;;;10.28
70415;BMP280;57837;52.064;113.478;2023-03-04T10:01:36;92704.03;;;10.15
70415;BMP280;57837;52.064;113.478;2023-03-04T10:04:46;92715.13;;;10.01
70415;BMP280;57837;52.064;113.478;2023-03-04T10:14:59;92743.00;;;9.77
70415;BMP280;57837;52.064;113.478;2023-03-04T10:18:15;92745.69;;;9.68
70415;BMP280;57837;52.064;113.478;2023-03-04T10:21:47;92759.97;;;9.63
70415;BMP280;57837;52.064;113.478;2023-03-04T10:24:55;92756.06;;;9.53
70415;BMP280;57837;52.064;113.478;2023-03-04T10:28:11;92758.53;;;9.47
70415;BMP280;57837;52.064;113.478;2023-03-04T10:31:29;92760.59;;;9.43
70415;BMP280;57837;52.064;113.478;2023-03-04T10:34:33;92761.50;;;9.40
70415;BMP280;57837;52.064;113.478;2023-03-04T10:37:47;92757.13;;;9.32
70415;BMP280;57837;52.064;113.478;2023-03-04T10:40:50;92763.53;;;9.22
70415;BMP280;57837;52.064;113.478;2023-03-04T10:47:09;92766.47;;;9.14
70415;BMP280;57837;52.064;113.478;2023-03-04T10:50:27;92773.41;;;9.08
70415;BMP280;57837;52.064;113.478;2023-03-04T10:53:35;92771.66;;;9.00
70415;BMP280;57837;52.064;113.478;2023-03-04T10:56:42;92792.00;;;8.98
70415;BMP280;57837;52.064;113.478;2023-03-04T11:03:37;92809.97;;;8.92
70415;BMP280;57837;52.064;113.478;2023-03-04T11:06:41;92812.72;;;8.89
70415;BMP280;57837;52.064;113.478;2023-03-04T11:09:44;92820.59;;;8.70
70415;BMP280;57837;52.064;113.478;2023-03-04T11:16:26;92833.84;;;8.30
70415;BMP280;57837;52.064;113.478;2023-03-04T11:19:36;92836.56;;;8.27
70415;BMP280;57837;52.064;113.478;2023-03-04T11:22:41;92834.84;;;8.24
70415;BMP280;57837;52.064;113.478;2023-03-04T11:25:56;92839.44;;;8.29
70415;BMP280;57837;52.064;113.478;2023-03-04T11:29:25;92838.56;;;8.23
70415;BMP280;57837;52.064;113.478;2023-03-04T11:32:35;92846.50;;;8.19
70415;BMP280;57837;52.064;113.478;2023-03-04T11:40:10;92859.81;;;8.18
70415;BMP280;57837;52.064;113.478;2023-03-04T11:42:44;92855.53;;;8.15
70415;BMP280;57837;52.064;113.478;2023-03-04T11:55:50;92852.72;;;7.94
70415;BMP280;57837;52.064;113.478;2023-03-04T11:59:24;92855.03;;;7.83
70415;BMP280;57837;52.064;113.478;2023-03-04T12:12:52;92874.84;;;7.50
70415;BMP280;57837;52.064;113.478;2023-03-04T12:19:36;92892.41;;;7.33
70415;BMP280;57837;52.064;113.478;2023-03-04T12:22:53;92886.72;;;7.29
70415;BMP280;57837;52.064;113.478;2023-03-04T12:26:06;92883.13;;;7.27
70415;BMP280;57837;52.064;113.478;2023-03-04T12:29:27;92896.00;;;7.27
70415;BMP280;57837;52.064;113.478;2023-03-04T12:40:36;92914.53;;;7.12
70415;BMP280;57837;52.064;113.478;2023-03-04T12:43:20;92907.84;;;7.15
70415;BMP280;57837;52.064;113.478;2023-03-04T12:49:58;92919.00;;;7.21
70415;BMP280;57837;52.064;113.478;2023-03-04T12:56:36;92929.88;;;7.25
70415;BMP280;57837;52.064;113.478;2023-03-04T13:00:16;92941.31;;;7.24
70415;BMP280;57837;52.064;113.478;2023-03-04T13:03:35;92947.75;;;7.19
70415;BMP280;57837;52.064;113.478;2023-03-04T13:13:40;92966.19;;;7.18
70415;BMP280;57837;52.064;113.478;2023-03-04T13:20:10;92980.03;;;7.20
70415;BMP280;57837;52.064;113.478;2023-03-04T13:26:33;92991.50;;;7.19
70415;BMP280;57837;52.064;113.478;2023-03-04T13:29:36;92998.50;;;7.19
70415;BMP280;57837;52.064;113.478;2023-03-04T13:32:39;93012.22;;;7.16
70415;BMP280;57837;52.064;113.478;2023-03-04T13:39:25;93021.94;;;7.21
70415;BMP280;57837;52.064;113.478;2023-03-04T13:42:41;93021.94;;;7.21
70415;BMP280;57837;52.064;113.478;2023-03-04T13:45:44;93032.78;;;7.16
70415;BMP280;57837;52.064;113.478;2023-03-04T13:51:54;93032.34;;;7.08
70415;BMP280;57837;52.064;113.478;2023-03-04T13:55:50;93041.03;;;7.11
70415;BMP280;57837;52.064;113.478;2023-03-04T13:58:52;93039.63;;;7.10
70415;BMP280;57837;52.064;113.478;2023-03-04T14:02:17;93046.50;;;7.13
70415;BMP280;57837;52.064;113.478;2023-03-04T14:05:21;93050.31;;;6.99
70415;BMP280;57837;52.064;113.478;2023-03-04T14:08:25;93056.53;;;6.89
70415;BMP280;57837;52.064;113.478;2023-03-04T14:11:35;93052.50;;;6.79
70415;BMP280;57837;52.064;113.478;2023-03-04T14:18:00;93062.63;;;6.52
70415;BMP280;57837;52.064;113.478;2023-03-04T14:21:04;93077.28;;;6.42
70415;BMP280;57837;52.064;113.478;2023-03-04T14:24:16;93072.75;;;6.33
70415;BMP280;57837;52.064;113.478;2023-03-04T14:27:21;93081.56;;;6.23
70415;BMP280;57837;52.064;113.478;2023-03-04T14:30:27;93089.91;;;6.15
70415;BMP280;57837;52.064;113.478;2023-03-04T14:33:52;93084.47;;;6.13
70415;BMP280;57837;52.064;113.478;2023-03-04T14:37:14;93092.25;;;6.22
70415;BMP280;57837;52.064;113.478;2023-03-04T14:40:25;93090.19;;;6.17
70415;BMP280;57837;52.064;113.478;2023-03-04T14:43:33;93097.69;;;6.24
70415;BMP280;57837;52.064;113.478;2023-03-04T14:46:42;93103.16;;;6.26
70415;BMP280;57837;52.064;113.478;2023-03-04T14:50:10;93098.31;;;6.28
70415;BMP280;57837;52.064;113.478;2023-03-04T14:53:17;93108.53;;;6.40
70415;BMP280;57837;52.064;113.478;2023-03-04T14:56:27;93108.44;;;6.44
70415;BMP280;57837;52.064;113.478;2023-03-04T14:59:33;93115.94;;;6.38
70415;BMP280;57837;52.064;113.478;2023-03-04T15:02:41;93125.91;;;6.36
70415;BMP280;57837;52.064;113.478;2023-03-04T15:05:45;93122.97;;;6.25
70415;BMP280;57837;52.064;113.478;2023-03-04T15:12:02;93133.41;;;6.31
70415;BMP280;57837;52.064;113.478;2023-03-04T15:18:37;93139.63;;;6.08
70415;BMP280;57837;52.064;113.478;2023-03-04T15:21:40;93146.53;;;6.11
70415;BMP280;57837;52.064;113.478;2023-03-04T15:24:43;93147.56;;;6.14
70415;BMP280;57837;52.064;113.478;2023-03-04T15:27:49;93148.38;;;6.11
70415;BMP280;57837;52.064;113.478;2023-03-04T15:30:53;93140.72;;;5.98
70415;BMP280;57837;52.064;113.478;2023-03-04T15:33:56;93146.63;;;6.07
70415;BMP280;57837;52.064;113.478;2023-03-04T15:36:59;93141.38;;;6.24
70415;BMP280;57837;52.064;113.478;2023-03-04T15:40:05;93135.88;;;6.34
70415;BMP280;57837;52.064;113.478;2023-03-04T15:43:17;93136.38;;;6.42
70415;BMP280;57837;52.064;113.478;2023-03-04T15:46:20;93142.13;;;6.46
70415;BMP280;57837;52.064;113.478;2023-03-04T15:49:24;93150.97;;;6.45
70415;BMP280;57837;52.064;113.478;2023-03-04T15:52:28;93152.63;;;6.39
70415;BMP280;57837;52.064;113.478;2023-03-04T15:55:32;93156.84;;;6.33
70415;BMP280;57837;52.064;113.478;2023-03-04T15:58:37;93163.97;;;6.29
70415;BMP280;57837;52.064;113.478;2023-03-04T16:01:41;93176.38;;;6.30
70415;BMP280;57837;52.064;113.478;2023-03-04T16:04:45;93181.53;;;6.30
70415;BMP280;57837;52.064;113.478;2023-03-04T16:07:49;93187.53;;;6.27
70415;BMP280;57837;52.064;113.478;2023-03-04T16:10:52;93185.56;;;6.19
70415;BMP280;57837;52.064;113.478;2023-03-04T16:13:56;93186.28;;;6.06
70415;BMP280;57837;52.064;113.478;2023-03-04T16:16:59;93190.00;;;6.05
70415;BMP280;57837;52.064;113.478;2023-03-04T16:20:02;93184.13;;;6.05
70415;BMP280;57837;52.064;113.478;2023-03-04T16:23:11;93188.44;;;6.08
70415;BMP280;57837;52.064;113.478;2023-03-04T16:26:21;93181.78;;;6.11
70415;BMP280;57837;52.064;113.478;2023-03-04T16:29:24;93182.91;;;6.10
70415;BMP280;57837;52.064;113.478;2023-03-04T16:32:28;93172.41;;;6.17
70415;BMP280;57837;52.064;113.478;2023-03-04T16:35:36;93180.94;;;6.26
70415;BMP280;57837;52.064;113.478;2023-03-04T16:38:39;93183.53;;;6.26
70415;BMP280;57837;52.064;113.478;2023-03-04T16:41:43;93175.81;;;6.26
70415;BMP280;57837;52.064;113.478;2023-03-04T16:44:47;93184.66;;;6.25
70415;BMP280;57837;52.064;113.478;2023-03-04T16:47:52;93187.81;;;6.29
70415;BMP280;57837;52.064;113.478;2023-03-04T16:50:56;93189.66;;;6.29
70415;BMP280;57837;52.064;113.478;2023-03-04T16:54:01;93192.22;;;6.29
70415;BMP280;57837;52.064;113.478;2023-03-04T16:57:04;93188.81;;;6.32
70415;BMP280;57837;52.064;113.478;2023-03-04T17:00:07;93188.09;;;6.31
70415;BMP280;57837;52.064;113.478;2023-03-04T17:03:11;93194.81;;;6.29
70415;BMP280;57837;52.064;113.478;2023-03-04T17:06:15;93195.97;;;6.28
70415;BMP280;57837;52.064;113.478;2023-03-04T17:09:19;93193.06;;;6.26
70415;BMP280;57837;52.064;113.478;2023-03-04T17:12:22;93194.13;;;6.16
70415;BMP280;57837;52.064;113.478;2023-03-04T17:15:26;93192.56;;;6.05
70415;BMP280;57837;52.064;113.478;2023-03-04T17:18:29;93186.53;;;5.99
70415;BMP280;57837;52.064;113.478;2023-03-04T17:21:32;93195.97;;;5.90
70415;BMP280;57837;52.064;113.478;2023-03-04T17:24:36;93183.44;;;5.79
70415;BMP280;57837;52.064;113.478;2023-03-04T17:27:40;93196.34;;;5.76
70415;BMP280;57837;52.064;113.478;2023-03-04T17:30:43;93193.72;;;5.66
70415;BMP280;57837;52.064;113.478;2023-03-04T17:33:47;93206.44;;;5.57
70415;BMP280;57837;52.064;113.478;2023-03-04T17:36:51;93204.75;;;5.51
70415;BMP280;57837;52.064;113.478;2023-03-04T17:39:55;93208.84;;;5.48
70415;BMP280;57837;52.064;113.478;2023-03-04T17:42:59;93210.63;;;5.39
70415;BMP280;57837;52.064;113.478;2023-03-04T17:46:04;93207.56;;;5.27
70415;BMP280;57837;52.064;113.478;2023-03-04T17:49:10;93214.84;;;5.16
70415;BMP280;57837;52.064;113.478;2023-03-04T17:52:14;93218.00;;;5.08
70415;BMP280;57837;52.064;113.478;2023-03-04T17:55:17;93213.44;;;4.99
70415;BMP280;57837;52.064;113.478;2023-03-04T17:58:22;93220.19;;;4.93
70415;BMP280;57837;52.064;113.478;2023-03-04T18:01:26;93222.31;;;4.82
70415;BMP280;57837;52.064;113.478;2023-03-04T18:04:30;93219.69;;;4.69
70415;BMP280;57837;52.064;113.478;2023-03-04T18:07:33;93216.25;;;4.59
70415;BMP280;57837;52.064;113.478;2023-03-04T18:10:36;93220.03;;;4.55
70415;BMP280;57837;52.064;113.478;2023-03-04T18:13:41;93217.94;;;4.50
70415;BMP280;57837;52.064;113.478;2023-03-04T18:16:44;93220.56;;;4.46
70415;BMP280;57837;52.064;113.478;2023-03-04T18:19:47;93227.53;;;4.46
70415;BMP280;57837;52.064;113.478;2023-03-04T18:22:51;93222.88;;;4.41
70415;BMP280;57837;52.064;113.478;2023-03-04T18:25:54;93228.00;;;4.41
70415;BMP280;57837;52.064;113.478;2023-03-04T18:28:58;93227.81;;;4.35
70415;BMP280;57837;52.064;113.478;2023-03-04T18:32:01;93234.03;;;4.34
70415;BMP280;57837;52.064;113.478;2023-03-04T18:35:06;93236.22;;;4.36
70415;BMP280;57837;52.064;113.478;2023-03-04T18:38:10;93246.47;;;4.36
70415;BMP280;57837;52.064;113.478;2023-03-04T18:41:15;93254.53;;;4.34
70415;BMP280;57837;52.064;113.478;2023-03-04T18:44:18;93243.19;;;4.35
70415;BMP280;57837;52.064;113.478;2023-03-04T18:47:21;93246.66;;;4.41
70415;BMP280;57837;52.064;113.478;2023-03-04T18:50:25;93251.06;;;4.41
70415;BMP280;57837;52.064;113.478;2023-03-04T18:53:29;93259.00;;;4.46
70415;BMP280;57837;52.064;113.478;2023-03-04T18:56:40;93259.72;;;4.47
70415;BMP280;57837;52.064;113.478;2023-03-04T18:59:49;93262.53;;;4.52
70415;BMP280;57837;52.064;113.478;2023-03-04T19:03:01;93262.44;;;4.56
70415;BMP280;57837;52.064;113.478;2023-03-04T19:06:08;93261.25;;;4.61
70415;BMP280;57837;52.064;113.478;2023-03-04T19:09:12;93260.84;;;4.62
70415;BMP280;57837;52.064;113.478;2023-03-04T19:12:15;93263.03;;;4.64